Toyofujimaru No.2 — 7JDI — position and weather

sailwx.info

Track history (hours):
 
Tides and Currents Weather Stations Pressure Air Temp Water Temp Dewpoint Dewpoint Depression Visibility Wind Speed Wind Dir Waves Ship Positions

Toyofujimaru No.2

Last reported at 2017-Jun-24 09:20 UTC. Time now 2017-Jun-24 12:06 UTC.
Position N 38°51' E 122°08'.

Length 165 m; draft 6.2 m.

Type: Ship. MMSI: 432667000.

Date/timePositionNaut miles runAvg speedWind from/ knotsBaromVisibWave heightAir tempDewpointWater temp
2017-Jun-24 09:20N 38°51' E 122°08'617.0
2017-Jun-24 08:59N 38°48' E 122°02'8 1.2
2017-Jun-24 02:05N 38°55' E 121°58'113.9
2017-Jun-24 01:58N 38°54' E 121°58'3 1.1
2017-Jun-23 23:09N 38°52' E 122°01'2 9.3
2017-Jun-23 22:53N 38°49' E 122°00'511.3
2017-Jun-23 22:29N 38°45' E 121°59'4 0.8
2017-Jun-23 17:11N 38°46' E 121°53'211.5
2017-Jun-23 16:59N 38°47' E 121°51'3 6.7
2017-Jun-23 16:30N 38°49' E 121°48'1 1.0
2017-Jun-23 15:59N 38°49' E 121°48'1 1.1
2017-Jun-23 15:29N 38°48' E 121°48'1 1.2
2017-Jun-23 14:38N 38°47' E 121°49'1 1.1
2017-Jun-23 13:53N 38°47' E 121°50'1 1.2
2017-Jun-23 13:26N 38°46' E 121°50'1 1.2
2017-Jun-23 12:59N 38°46' E 121°50'1 1.3
2017-Jun-23 12:26N 38°45' E 121°51'1 1.4
2017-Jun-23 11:59N 38°44' E 121°51'1 1.4
2017-Jun-23 11:29N 38°44' E 121°51'1 1.5
2017-Jun-23 10:59N 38°43' E 121°51'1 1.3
2017-Jun-23 10:02N 38°42' E 121°52'0 1.3
2017-Jun-23 09:59N 38°42' E 121°52'0 0.6
2017-Jun-23 09:29N 38°41' E 121°52'0 0.9
2017-Jun-23 08:59N 38°41' E 121°52'0 0.7
2017-Jun-23 08:29N 38°41' E 121°53'0 0.7
2017-Jun-23 07:59N 38°40' E 121°53'0 0.7
2017-Jun-23 07:29N 38°40' E 121°53'0 0.7
2017-Jun-23 06:59N 38°40' E 121°53'0 0.7
2017-Jun-23 06:26N 38°40' E 121°53'1 0.9
2017-Jun-23 05:50N 38°39' E 121°54'0 1.0
2017-Jun-23 05:26N 38°39' E 121°54'0 0.9
2017-Jun-23 04:56N 38°39' E 121°55'0 1.0
2017-Jun-23 04:29N 38°39' E 121°55'0 1.0
2017-Jun-23 04:00N 38°39' E 121°56'4 8.3
2017-Jun-23 03:30N 38°39' E 121°51'3 6.5
2017-Jun-23 02:59N 38°40' E 121°46'1 1.8
2017-Jun-23 02:29N 38°40' E 121°48'1 2.0
2017-Jun-23 01:59N 38°40' E 121°49'1 1.9
2017-Jun-23 01:29N 38°41' E 121°50'1 1.5
2017-Jun-23 01:00N 38°41' E 121°51'1 1.3
2017-Jun-23 00:30N 38°41' E 121°51'0 0.9
2017-Jun-23 00:00N 38°41' E 121°52'0 0.7
2017-Jun-22 23:30N 38°42' E 121°52'0 0.4
2017-Jun-22 23:00N 38°42' E 121°53'0 0.2
2017-Jun-22 22:30N 38°42' E 121°53'0 0.2
2017-Jun-22 22:00N 38°42' E 121°52'0 0.5
2017-Jun-22 21:30N 38°42' E 121°52'2 3.2
2017-Jun-22 21:00N 38°44' E 121°52'2 4.7
2017-Jun-22 20:30N 38°46' E 121°50'612.0
2017-Jun-22 20:00N 38°40' E 121°47'713.1
2017-Jun-22 19:29N 38°34' E 121°43'815.0
2017-Jun-22 18:58N 38°30' E 121°34'7215.5
2017-Jun-22 14:20N 38°39' E 120°03'4917.6
2017-Jun-22 11:34N 38°45' E 119°01'318.0
2017-Jun-22 11:25N 38°46' E 118°57'1618.0
2017-Jun-22 10:31N 38°48' E 118°37'119.5
2017-Jun-22 10:29N 38°48' E 118°36'1218.5
2017-Jun-22 09:51N 38°50' E 118°21'618.2
2017-Jun-22 09:30N 38°51' E 118°13'6 0.4
2017-Jun-21 16:54N 38°52' E 118°22'2816.0
2017-Jun-21 15:10N 38°49' E 118°57'2813.6
2017-Jun-21 13:09N 38°45' E 119°32'213.0
2017-Jun-21 13:00N 38°45' E 119°34'712.9
2017-Jun-21 12:30N 38°43' E 119°42'712.9
2017-Jun-21 11:57N 38°41' E 119°51'612.6
2017-Jun-21 11:30N 38°41' E 119°58'612.4
2017-Jun-21 11:01N 38°40' E 120°06'612.3
2017-Jun-21 10:31N 38°40' E 120°14'612.1
2017-Jun-21 10:00N 38°40' E 120°22'611.9
2017-Jun-21 09:30N 38°39' E 120°29'611.7
2017-Jun-21 09:00N 38°37' E 120°37'611.4
2017-Jun-21 08:30N 38°37' E 120°44'510.1
2017-Jun-21 08:00N 38°37' E 120°50'5 9.4
2017-Jun-21 07:31N 38°36' E 120°56'815.2
2017-Jun-21 07:00N 38°32' E 121°05'917.6
2017-Jun-21 06:31N 38°29' E 121°15'917.5
2017-Jun-21 06:01N 38°29' E 121°26'713.5
2017-Jun-21 05:29N 38°31' E 121°17'1212.5
2017-Jun-21 04:33N 38°25' E 121°30'318.3
2017-Jun-21 04:22N 38°23' E 121°33'718.1
2017-Jun-21 04:00N 38°20' E 121°41'918.0
2017-Jun-21 03:30N 38°16' E 121°51'1016.7
2017-Jun-21 02:54N 38°11' E 122°02'718.4
2017-Jun-21 02:30N 38°08' E 122°10'918.1
2017-Jun-21 02:01N 38°04' E 122°21'1418.0
2017-Jun-21 01:12N 37°57' E 122°37'417.4
2017-Jun-21 01:00N 37°56' E 122°41'917.7
2017-Jun-21 00:30N 37°52' E 122°51'917.7
2017-Jun-21 00:01N 37°49' E 123°01'917.8
2017-Jun-20 23:31N 37°45' E 123°12'1217.8
2017-Jun-20 22:49N 37°40' E 123°26'618.0
2017-Jun-20 22:27N 37°38' E 123°34'  
2017-Jun-16 03:03N 29°58' E 126°21'117.5
2017-Jun-16 03:00N 29°57' E 126°20'5918.4
2017-Jun-15 23:47N 29°07' E 125°44'  
Track history (hours):
 
Tides and Currents Weather Stations Pressure Air Temp Water Temp Dewpoint Dewpoint Depression Visibility Wind Speed Wind Dir Waves Ship Positions

Toyofujimaru No.2

Last reported at 2017-Jun-24 09:20 UTC. Time now 2017-Jun-24 12:06 UTC.
Position N 38°51' E 122°08'.

Length 165 m; draft 6.2 m.

Type: Ship. MMSI: 432667000.

Date/timePositionNaut miles runAvg speedWind from/ knotsBaromVisibWave heightAir tempDewpointWater temp
2017-Jun-24 09:20N 38°51' E 122°08'617.0
2017-Jun-24 08:59N 38°48' E 122°02'8 1.2
2017-Jun-24 02:05N 38°55' E 121°58'113.9
2017-Jun-24 01:58N 38°54' E 121°58'3 1.1
2017-Jun-23 23:09N 38°52' E 122°01'2 9.3
2017-Jun-23 22:53N 38°49' E 122°00'511.3
2017-Jun-23 22:29N 38°45' E 121°59'4 0.8
2017-Jun-23 17:11N 38°46' E 121°53'211.5
2017-Jun-23 16:59N 38°47' E 121°51'3 6.7
2017-Jun-23 16:30N 38°49' E 121°48'1 1.0
2017-Jun-23 15:59N 38°49' E 121°48'1 1.1
2017-Jun-23 15:29N 38°48' E 121°48'1 1.2
2017-Jun-23 14:38N 38°47' E 121°49'1 1.1
2017-Jun-23 13:53N 38°47' E 121°50'1 1.2
2017-Jun-23 13:26N 38°46' E 121°50'1 1.2
2017-Jun-23 12:59N 38°46' E 121°50'1 1.3
2017-Jun-23 12:26N 38°45' E 121°51'1 1.4
2017-Jun-23 11:59N 38°44' E 121°51'1 1.4
2017-Jun-23 11:29N 38°44' E 121°51'1 1.5
2017-Jun-23 10:59N 38°43' E 121°51'1 1.3
2017-Jun-23 10:02N 38°42' E 121°52'0 1.3
2017-Jun-23 09:59N 38°42' E 121°52'0 0.6
2017-Jun-23 09:29N 38°41' E 121°52'0 0.9
2017-Jun-23 08:59N 38°41' E 121°52'0 0.7
2017-Jun-23 08:29N 38°41' E 121°53'0 0.7
2017-Jun-23 07:59N 38°40' E 121°53'0 0.7
2017-Jun-23 07:29N 38°40' E 121°53'0 0.7
2017-Jun-23 06:59N 38°40' E 121°53'0 0.7
2017-Jun-23 06:26N 38°40' E 121°53'1 0.9
2017-Jun-23 05:50N 38°39' E 121°54'0 1.0
2017-Jun-23 05:26N 38°39' E 121°54'0 0.9
2017-Jun-23 04:56N 38°39' E 121°55'0 1.0
2017-Jun-23 04:29N 38°39' E 121°55'0 1.0
2017-Jun-23 04:00N 38°39' E 121°56'4 8.3
2017-Jun-23 03:30N 38°39' E 121°51'3 6.5
2017-Jun-23 02:59N 38°40' E 121°46'1 1.8
2017-Jun-23 02:29N 38°40' E 121°48'1 2.0
2017-Jun-23 01:59N 38°40' E 121°49'1 1.9
2017-Jun-23 01:29N 38°41' E 121°50'1 1.5
2017-Jun-23 01:00N 38°41' E 121°51'1 1.3
2017-Jun-23 00:30N 38°41' E 121°51'0 0.9
2017-Jun-23 00:00N 38°41' E 121°52'0 0.7
2017-Jun-22 23:30N 38°42' E 121°52'0 0.4
2017-Jun-22 23:00N 38°42' E 121°53'0 0.2
2017-Jun-22 22:30N 38°42' E 121°53'0 0.2
2017-Jun-22 22:00N 38°42' E 121°52'0 0.5
2017-Jun-22 21:30N 38°42' E 121°52'2 3.2
2017-Jun-22 21:00N 38°44' E 121°52'2 4.7
2017-Jun-22 20:30N 38°46' E 121°50'612.0
2017-Jun-22 20:00N 38°40' E 121°47'713.1
2017-Jun-22 19:29N 38°34' E 121°43'815.0
2017-Jun-22 18:58N 38°30' E 121°34'7215.5
2017-Jun-22 14:20N 38°39' E 120°03'4917.6
2017-Jun-22 11:34N 38°45' E 119°01'318.0
2017-Jun-22 11:25N 38°46' E 118°57'1618.0
2017-Jun-22 10:31N 38°48' E 118°37'119.5
2017-Jun-22 10:29N 38°48' E 118°36'1218.5
2017-Jun-22 09:51N 38°50' E 118°21'618.2
2017-Jun-22 09:30N 38°51' E 118°13'6 0.4
2017-Jun-21 16:54N 38°52' E 118°22'2816.0
2017-Jun-21 15:10N 38°49' E 118°57'2813.6
2017-Jun-21 13:09N 38°45' E 119°32'213.0
2017-Jun-21 13:00N 38°45' E 119°34'712.9
2017-Jun-21 12:30N 38°43' E 119°42'712.9
2017-Jun-21 11:57N 38°41' E 119°51'612.6
2017-Jun-21 11:30N 38°41' E 119°58'612.4
2017-Jun-21 11:01N 38°40' E 120°06'612.3
2017-Jun-21 10:31N 38°40' E 120°14'612.1
2017-Jun-21 10:00N 38°40' E 120°22'611.9
2017-Jun-21 09:30N 38°39' E 120°29'611.7
2017-Jun-21 09:00N 38°37' E 120°37'611.4
2017-Jun-21 08:30N 38°37' E 120°44'510.1
2017-Jun-21 08:00N 38°37' E 120°50'5 9.4
2017-Jun-21 07:31N 38°36' E 120°56'815.2
2017-Jun-21 07:00N 38°32' E 121°05'917.6
2017-Jun-21 06:31N 38°29' E 121°15'917.5
2017-Jun-21 06:01N 38°29' E 121°26'713.5
2017-Jun-21 05:29N 38°31' E 121°17'1212.5
2017-Jun-21 04:33N 38°25' E 121°30'318.3
2017-Jun-21 04:22N 38°23' E 121°33'718.1
2017-Jun-21 04:00N 38°20' E 121°41'918.0
2017-Jun-21 03:30N 38°16' E 121°51'1016.7
2017-Jun-21 02:54N 38°11' E 122°02'718.4
2017-Jun-21 02:30N 38°08' E 122°10'918.1
2017-Jun-21 02:01N 38°04' E 122°21'1418.0
2017-Jun-21 01:12N 37°57' E 122°37'417.4
2017-Jun-21 01:00N 37°56' E 122°41'917.7
2017-Jun-21 00:30N 37°52' E 122°51'917.7
2017-Jun-21 00:01N 37°49' E 123°01'917.8
2017-Jun-20 23:31N 37°45' E 123°12'1217.8
2017-Jun-20 22:49N 37°40' E 123°26'618.0
2017-Jun-20 22:27N 37°38' E 123°34'  
2017-Jun-16 03:03N 29°58' E 126°21'117.5
2017-Jun-16 03:00N 29°57' E 126°20'5918.4
2017-Jun-15 23:47N 29°07' E 125°44'  

Dump ship's entire track history